X  Zatvori METAR Podaci o vazduhoplovstvu     LYNI Nis Airport
Temperatura
2°C Temperatura
2°C Tačka Rose
100% Vlaga



Vetar
0 M/S
1 MPH
2 KM/H
1 KTS



100°
I
Trenutna situacija

Partly Cloudy Partly Cloudy
Vazdušni pritisak 1022.92 (hPa) - 30.21 (inHg)
Vidljivost 6.2 (Milja) - 10 (km)
Aerodrom
Aerodromski kod. LYNI

Lokacija: Nis Airport
Udaljenost: 63 (km)

Metar:
LYNI 280430Z 10001KT 9999 FEW017 BKN040 02/02 Q1023 TEMPO 5000 BR

Vreme: 28-11-2022 05:30 CET